createdAt,value
2023-05-09T00:01:32.126Z,8.46
2023-05-09T00:06:42.040Z,8.36
2023-05-09T00:11:51.815Z,8.26
2023-05-09T00:17:01.738Z,8.18
2023-05-09T00:22:13.314Z,8.14
2023-05-09T00:27:23.211Z,8.01
2023-05-09T00:32:33.587Z,7.94
2023-05-09T00:37:43.252Z,7.84
2023-05-09T00:42:53.058Z,7.64
2023-05-09T00:48:03.032Z,7.50
2023-05-09T00:53:13.208Z,7.42
2023-05-09T00:58:24.046Z,7.45
2023-05-09T01:03:35.298Z,7.42
2023-05-09T01:08:54.394Z,7.30
2023-05-09T01:14:17.745Z,7.17
2023-05-09T01:19:58.852Z,7.11
2023-05-09T01:25:30.588Z,7.08
2023-05-09T01:30:43.719Z,7.09
2023-05-09T01:35:59.167Z,7.01
2023-05-09T01:41:10.987Z,6.94
2023-05-09T01:46:23.460Z,6.81
2023-05-09T01:51:34.700Z,6.73
2023-05-09T01:56:46.669Z,6.68
2023-05-09T02:01:57.066Z,6.66
2023-05-09T02:07:07.574Z,6.59
2023-05-09T02:12:17.204Z,6.55
2023-05-09T02:17:26.869Z,6.50
2023-05-09T02:22:36.998Z,6.45
2023-05-09T02:27:48.546Z,6.31
2023-05-09T02:33:05.267Z,6.21
2023-05-09T02:38:15.909Z,6.14
2023-05-09T02:43:25.491Z,6.09
2023-05-09T02:48:35.196Z,6.04
2023-05-09T02:53:45.332Z,6.05
2023-05-09T02:58:54.962Z,6.02
2023-05-09T03:04:05.003Z,5.90
2023-05-09T03:09:14.817Z,5.85
2023-05-09T03:14:24.575Z,5.84
2023-05-09T03:19:34.267Z,5.92
2023-05-09T03:24:44.484Z,6.00
2023-05-09T03:29:54.311Z,6.11
2023-05-09T03:35:04.452Z,6.16
2023-05-09T03:40:15.729Z,6.24
2023-05-09T03:45:25.880Z,6.33
2023-05-09T03:50:35.862Z,6.40
2023-05-09T03:55:45.919Z,6.45
2023-05-09T04:00:55.731Z,6.68
2023-05-09T04:06:06.453Z,6.87
2023-05-09T04:11:16.080Z,7.01
2023-05-09T04:16:26.002Z,7.24
2023-05-09T04:21:35.640Z,7.39
2023-05-09T04:26:46.468Z,7.59
2023-05-09T04:31:56.760Z,7.77
2023-05-09T04:37:06.742Z,7.94
2023-05-09T04:42:16.658Z,8.08
2023-05-09T04:47:26.500Z,8.15
2023-05-09T04:52:36.367Z,8.30
2023-05-09T04:57:45.980Z,8.51
2023-05-09T05:02:56.121Z,8.71
2023-05-09T05:08:06.175Z,8.89
2023-05-09T05:13:16.062Z,9.02
2023-05-09T05:18:25.718Z,9.19
2023-05-09T05:23:35.561Z,9.36
2023-05-09T05:28:45.291Z,9.50
2023-05-09T05:33:54.943Z,9.64
2023-05-09T05:39:04.837Z,9.82
2023-05-09T05:44:17.256Z,9.99
2023-05-09T05:49:27.399Z,10.19
2023-05-09T05:54:37.212Z,10.39
2023-05-09T05:59:48.197Z,10.64
2023-05-09T06:04:58.170Z,10.92
2023-05-09T06:10:09.753Z,11.28
2023-05-09T06:15:19.993Z,11.65
2023-05-09T06:20:29.637Z,11.99
2023-05-09T06:25:39.496Z,12.28
2023-05-09T06:30:49.315Z,12.55
2023-05-09T06:36:00.615Z,12.83
2023-05-09T06:41:10.367Z,13.07
2023-05-09T06:46:20.175Z,13.32
2023-05-09T06:51:29.982Z,13.62
2023-05-09T06:56:40.058Z,13.92
2023-05-09T07:01:49.791Z,14.15
2023-05-09T07:07:00.888Z,14.42
2023-05-09T07:12:11.394Z,14.63
2023-05-09T07:17:24.037Z,14.89
2023-05-09T07:22:37.000Z,15.18
2023-05-09T07:27:47.979Z,15.40
2023-05-09T07:32:57.936Z,15.53
2023-05-09T07:38:07.772Z,15.67
2023-05-09T07:43:17.532Z,15.80
2023-05-09T07:48:27.667Z,15.88
2023-05-09T07:53:40.186Z,16.09
2023-05-09T07:58:50.387Z,16.25
2023-05-09T08:04:00.116Z,16.43
2023-05-09T08:09:12.249Z,16.49
2023-05-09T08:14:21.969Z,16.51
2023-05-09T08:19:31.781Z,16.60
2023-05-09T08:24:41.783Z,16.65
2023-05-09T08:29:51.622Z,16.78
2023-05-09T08:35:01.237Z,16.89
2023-05-09T08:40:13.188Z,17.05
2023-05-09T08:45:30.717Z,17.19
2023-05-09T08:50:40.771Z,17.27
2023-05-09T08:55:51.112Z,17.33
2023-05-09T09:01:05.048Z,17.45
2023-05-09T09:06:15.837Z,17.48
2023-05-09T09:11:26.279Z,17.76
2023-05-09T09:16:38.232Z,17.87
2023-05-09T09:21:51.463Z,17.94
2023-05-09T09:27:06.562Z,18.03
2023-05-09T09:32:18.882Z,18.20
2023-05-09T09:37:28.867Z,18.13
2023-05-09T09:42:48.516Z,18.17
2023-05-09T09:47:58.364Z,18.41
2023-05-09T09:53:08.292Z,18.54
2023-05-09T09:58:25.510Z,18.56
2023-05-09T10:03:43.925Z,18.43
2023-05-09T10:08:53.669Z,18.34
2023-05-09T10:14:03.416Z,18.53
2023-05-09T10:19:14.600Z,18.61
2023-05-09T10:24:35.181Z,18.71
2023-05-09T10:29:51.561Z,18.90
2023-05-09T10:35:14.176Z,19.00
2023-05-09T10:40:25.015Z,18.99
2023-05-09T10:45:34.965Z,19.00
2023-05-09T10:50:45.115Z,18.95
2023-05-09T10:55:59.480Z,19.06
2023-05-09T11:01:11.029Z,19.34
2023-05-09T11:06:52.417Z,19.51
2023-05-09T11:12:09.873Z,19.51
2023-05-09T11:17:32.451Z,19.30
2023-05-09T11:22:47.670Z,19.42
2023-05-09T11:28:02.580Z,19.45
2023-05-09T11:33:30.454Z,19.53
2023-05-09T11:38:49.106Z,19.63
2023-05-09T11:44:01.458Z,19.64
2023-05-09T11:49:13.491Z,19.53
2023-05-09T11:54:25.234Z,19.54
2023-05-09T11:59:36.881Z,19.55
2023-05-09T12:04:46.860Z,19.49
2023-05-09T12:09:57.393Z,19.51
2023-05-09T12:15:11.688Z,19.53
2023-05-09T12:20:21.554Z,19.62
2023-05-09T12:25:31.303Z,19.61
2023-05-09T12:30:41.354Z,19.67
2023-05-09T12:36:03.523Z,19.71
2023-05-09T12:41:33.219Z,19.52
2023-05-09T12:46:54.407Z,19.48
2023-05-09T12:52:06.172Z,19.58
2023-05-09T12:57:30.076Z,19.64
2023-05-09T13:02:44.071Z,19.70
2023-05-09T13:07:58.575Z,19.59
2023-05-09T13:13:16.893Z,19.57
2023-05-09T13:18:27.171Z,19.59
2023-05-09T13:23:37.071Z,19.56
2023-05-09T13:28:46.853Z,19.70
2023-05-09T13:33:56.631Z,19.64
2023-05-09T13:39:06.660Z,19.60
2023-05-09T13:44:16.734Z,19.57
2023-05-09T13:49:27.368Z,19.58
2023-05-09T13:54:37.357Z,19.70
2023-05-09T13:59:47.489Z,19.64
2023-05-09T14:04:59.266Z,19.56
2023-05-09T14:10:12.294Z,19.71
2023-05-09T14:15:22.678Z,19.90
2023-05-09T14:20:34.205Z,19.89
2023-05-09T14:25:43.865Z,19.74
2023-05-09T14:30:53.931Z,19.75
2023-05-09T14:36:04.469Z,19.70
2023-05-09T14:41:15.120Z,19.82
2023-05-09T14:46:25.183Z,19.94
2023-05-09T14:51:35.303Z,20.06
2023-05-09T14:56:45.236Z,20.07
2023-05-09T15:01:54.952Z,20.07
2023-05-09T15:07:06.258Z,20.03
2023-05-09T15:12:16.276Z,19.95
2023-05-09T15:17:26.824Z,19.89
2023-05-09T15:22:36.483Z,19.89
2023-05-09T15:27:46.657Z,19.89
2023-05-09T15:32:56.384Z,20.35
2023-05-09T15:38:05.941Z,21.06
2023-05-09T15:43:16.034Z,21.46
2023-05-09T15:48:27.571Z,21.88
2023-05-09T15:53:37.202Z,22.24
2023-05-09T15:58:46.740Z,22.05
2023-05-09T16:03:57.108Z,22.70
2023-05-09T16:09:07.149Z,23.26
2023-05-09T16:14:16.922Z,23.81
2023-05-09T16:19:26.858Z,23.72
2023-05-09T16:24:37.650Z,23.27
2023-05-09T16:29:47.985Z,23.63
2023-05-09T16:34:57.514Z,24.17
2023-05-09T16:40:08.293Z,24.13
2023-05-09T16:45:18.312Z,24.04
2023-05-09T16:50:29.532Z,24.18
2023-05-09T16:55:40.150Z,23.94
2023-05-09T17:00:49.891Z,23.81
2023-05-09T17:05:59.892Z,23.87
2023-05-09T17:11:10.037Z,24.03
2023-05-09T17:16:20.025Z,24.12
2023-05-09T17:21:29.784Z,24.06
2023-05-09T17:26:39.538Z,23.99
2023-05-09T17:31:49.287Z,23.81
2023-05-09T17:37:01.272Z,23.66
2023-05-09T17:42:12.610Z,23.34
2023-05-09T17:47:22.339Z,22.77
2023-05-09T17:52:32.395Z,21.47
2023-05-09T17:57:43.288Z,20.07
2023-05-09T18:02:53.362Z,18.77
2023-05-09T18:08:03.858Z,17.95
2023-05-09T18:13:14.166Z,17.39
2023-05-09T18:18:23.927Z,16.90
2023-05-09T18:23:33.635Z,16.51
2023-05-09T18:28:43.402Z,16.20
2023-05-09T18:33:53.100Z,15.93
2023-05-09T18:39:02.739Z,15.61
2023-05-09T18:44:12.540Z,15.35
2023-05-09T18:49:22.825Z,15.14
2023-05-09T18:54:32.448Z,14.98
2023-05-09T18:59:42.230Z,14.79
2023-05-09T19:04:52.724Z,14.62
2023-05-09T19:10:04.178Z,14.48
2023-05-09T19:15:15.741Z,14.35
2023-05-09T19:20:26.126Z,14.23
2023-05-09T19:25:37.339Z,14.08
2023-05-09T19:30:47.118Z,13.95
2023-05-09T19:35:56.740Z,13.83
2023-05-09T19:41:06.388Z,13.74
2023-05-09T19:46:16.126Z,13.61
2023-05-09T19:51:25.795Z,13.50
2023-05-09T19:56:35.730Z,13.35
2023-05-09T20:01:45.733Z,13.18
2023-05-09T20:06:55.580Z,13.08
2023-05-09T20:12:07.537Z,12.97
2023-05-09T20:17:17.068Z,12.84
2023-05-09T20:22:26.748Z,12.71
2023-05-09T20:27:37.676Z,12.64
2023-05-09T20:32:47.716Z,12.52
2023-05-09T20:37:57.502Z,12.44
2023-05-09T20:43:07.355Z,12.31
2023-05-09T20:48:16.947Z,12.23
2023-05-09T20:53:27.842Z,12.15
2023-05-09T20:58:38.142Z,12.05
2023-05-09T21:03:47.872Z,11.95
2023-05-09T21:08:57.729Z,11.82
2023-05-09T21:14:07.825Z,11.78
2023-05-09T21:19:17.376Z,11.65
2023-05-09T21:24:26.947Z,11.47
2023-05-09T21:29:36.516Z,11.36
2023-05-09T21:34:46.181Z,11.28
2023-05-09T21:39:55.733Z,11.18
2023-05-09T21:45:05.665Z,11.10
2023-05-09T21:50:16.040Z,10.98
2023-05-09T21:55:26.160Z,10.83
2023-05-09T22:00:35.726Z,10.71
2023-05-09T22:05:45.351Z,10.59
2023-05-09T22:10:55.062Z,10.53
2023-05-09T22:16:05.113Z,10.45
2023-05-09T22:21:14.963Z,10.40
2023-05-09T22:26:24.561Z,10.32
2023-05-09T22:31:34.515Z,10.19
2023-05-09T22:36:44.231Z,10.10
2023-05-09T22:41:54.126Z,10.02
2023-05-09T22:47:03.776Z,9.91
2023-05-09T22:52:13.741Z,9.87
2023-05-09T22:57:24.072Z,9.79
2023-05-09T23:02:33.684Z,9.79
2023-05-09T23:07:43.277Z,9.69
2023-05-09T23:12:52.919Z,9.61
2023-05-09T23:18:02.772Z,9.52
2023-05-09T23:23:12.884Z,9.46
2023-05-09T23:28:25.522Z,9.42
2023-05-09T23:33:35.708Z,9.38
2023-05-09T23:38:45.442Z,9.30
2023-05-09T23:43:55.110Z,9.22
2023-05-09T23:49:05.040Z,9.08
2023-05-09T23:54:14.617Z,9.01
2023-05-09T23:59:24.239Z,8.97
